sensor_id;sensor_type;location;lat;lon;timestamp;pressure;altitude;pressure_sealevel;temperature;humidity
37610;BME280;23457;51.966;8.230;2023-07-13T00:01:49;100711.28;;;18.99;81.48
37610;BME280;23457;51.966;8.230;2023-07-13T00:04:21;100718.28;;;19.00;81.44
37610;BME280;23457;51.966;8.230;2023-07-13T00:06:49;100718.06;;;19.10;80.70
37610;BME280;23457;51.966;8.230;2023-07-13T00:09:18;100724.22;;;19.09;81.50
37610;BME280;23457;51.966;8.230;2023-07-13T00:11:45;100718.06;;;19.10;81.31
37610;BME280;23457;51.966;8.230;2023-07-13T00:14:14;100720.53;;;19.18;80.81
37610;BME280;23457;51.966;8.230;2023-07-13T00:16:42;100726.69;;;19.18;80.97
37610;BME280;23457;51.966;8.230;2023-07-13T00:19:11;100731.84;;;19.24;80.60
37610;BME280;23457;51.966;8.230;2023-07-13T00:21:39;100722.19;;;19.25;80.32
37610;BME280;23457;51.966;8.230;2023-07-13T00:24:07;100728.44;;;19.18;80.30
37610;BME280;23457;51.966;8.230;2023-07-13T00:26:34;100730.56;;;18.99;81.33
37610;BME280;23457;51.966;8.230;2023-07-13T00:29:01;100736.63;;;19.03;81.54
37610;BME280;23457;51.966;8.230;2023-07-13T00:31:28;100727.78;;;19.07;81.27
37610;BME280;23457;51.966;8.230;2023-07-13T00:33:55;100728.84;;;18.96;82.27
37610;BME280;23457;51.966;8.230;2023-07-13T00:36:22;100726.09;;;19.03;82.12
37610;BME280;23457;51.966;8.230;2023-07-13T00:38:49;100724.78;;;18.79;82.81
37610;BME280;23457;51.966;8.230;2023-07-13T00:41:16;100735.72;;;18.53;84.24
37610;BME280;23457;51.966;8.230;2023-07-13T00:43:42;100730.16;;;18.73;83.67
37610;BME280;23457;51.966;8.230;2023-07-13T00:46:30;100733.53;;;18.79;83.00
37610;BME280;23457;51.966;8.230;2023-07-13T00:49:01;100728.19;;;18.85;82.99
37610;BME280;23457;51.966;8.230;2023-07-13T00:51:37;100732.47;;;18.89;82.87
37610;BME280;23457;51.966;8.230;2023-07-13T00:54:09;100738.19;;;18.64;84.04
37610;BME280;23457;51.966;8.230;2023-07-13T00:56:39;100733.72;;;18.70;84.21
37610;BME280;23457;51.966;8.230;2023-07-13T00:59:08;100738.81;;;18.79;84.04
37610;BME280;23457;51.966;8.230;2023-07-13T01:01:36;100728.28;;;18.79;84.13
37610;BME280;23457;51.966;8.230;2023-07-13T01:04:03;100731.09;;;18.69;83.92
37610;BME280;23457;51.966;8.230;2023-07-13T01:06:30;100734.31;;;18.86;83.88
37610;BME280;23457;51.966;8.230;2023-07-13T01:08:59;100739.34;;;19.00;83.22
37610;BME280;23457;51.966;8.230;2023-07-13T01:11:26;100735.63;;;19.11;82.98
37610;BME280;23457;51.966;8.230;2023-07-13T01:13:53;100727.16;;;18.92;83.62
37610;BME280;23457;51.966;8.230;2023-07-13T01:16:26;100734.22;;;18.90;83.51
37610;BME280;23457;51.966;8.230;2023-07-13T01:18:55;100734.16;;;18.95;83.60
37610;BME280;23457;51.966;8.230;2023-07-13T01:21:25;100731.94;;;18.72;86.04
37610;BME280;23457;51.966;8.230;2023-07-13T01:23:52;100727.56;;;18.70;88.77
37610;BME280;23457;51.966;8.230;2023-07-13T01:26:20;100723.00;;;18.81;88.58
37610;BME280;23457;51.966;8.230;2023-07-13T01:28:47;100723.00;;;18.79;88.55
37610;BME280;23457;51.966;8.230;2023-07-13T01:31:14;100730.00;;;18.80;88.99
37610;BME280;23457;51.966;8.230;2023-07-13T01:33:41;100719.31;;;18.89;89.47
37610;BME280;23457;51.966;8.230;2023-07-13T01:36:09;100722.84;;;18.88;88.35
37610;BME280;23457;51.966;8.230;2023-07-13T01:38:37;100717.88;;;18.73;89.30
37610;BME280;23457;51.966;8.230;2023-07-13T01:41:04;100724.75;;;18.80;88.80
37610;BME280;23457;51.966;8.230;2023-07-13T01:43:30;100720.34;;;18.82;88.48
37610;BME280;23457;51.966;8.230;2023-07-13T01:45:58;100719.91;;;18.53;88.93
37610;BME280;23457;51.966;8.230;2023-07-13T01:48:45;100723.44;;;18.52;89.76
37610;BME280;23457;51.966;8.230;2023-07-13T01:51:12;100722.84;;;18.35;91.37
37610;BME280;23457;51.966;8.230;2023-07-13T01:53:39;100726.97;;;18.51;90.86
37610;BME280;23457;51.966;8.230;2023-07-13T01:56:07;100722.66;;;18.47;92.30
37610;BME280;23457;51.966;8.230;2023-07-13T01:58:34;100723.56;;;18.46;92.20
37610;BME280;23457;51.966;8.230;2023-07-13T02:01:00;100719.25;;;18.39;91.80
37610;BME280;23457;51.966;8.230;2023-07-13T02:03:27;100729.59;;;18.51;91.71
37610;BME280;23457;51.966;8.230;2023-07-13T02:05:56;100733.91;;;18.59;91.56
37610;BME280;23457;51.966;8.230;2023-07-13T02:08:22;100734.06;;;18.47;91.00
37610;BME280;23457;51.966;8.230;2023-07-13T02:10:49;100729.63;;;18.49;90.75
37610;BME280;23457;51.966;8.230;2023-07-13T02:13:16;100723.63;;;18.41;91.20
37610;BME280;23457;51.966;8.230;2023-07-13T02:15:42;100738.75;;;18.27;91.95
37610;BME280;23457;51.966;8.230;2023-07-13T02:18:09;100738.03;;;18.17;92.51
37610;BME280;23457;51.966;8.230;2023-07-13T02:20:36;100738.06;;;18.14;92.60
37610;BME280;23457;51.966;8.230;2023-07-13T02:23:02;100739.84;;;18.12;92.57
37610;BME280;23457;51.966;8.230;2023-07-13T02:25:29;100739.13;;;18.01;93.55
37610;BME280;23457;51.966;8.230;2023-07-13T02:27:56;100734.84;;;17.94;92.70
37610;BME280;23457;51.966;8.230;2023-07-13T02:30:23;100735.78;;;17.88;92.71
37610;BME280;23457;51.966;8.230;2023-07-13T02:32:53;100737.53;;;17.89;93.03
37610;BME280;23457;51.966;8.230;2023-07-13T02:35:20;100731.34;;;17.95;92.02
37610;BME280;23457;51.966;8.230;2023-07-13T02:37:46;100733.94;;;17.98;92.07
37610;BME280;23457;51.966;8.230;2023-07-13T02:40:13;100740.25;;;17.85;92.31
37610;BME280;23457;51.966;8.230;2023-07-13T02:42:40;100734.91;;;17.88;92.48
37610;BME280;23457;51.966;8.230;2023-07-13T02:45:08;100735.75;;;17.93;91.38
37610;BME280;23457;51.966;8.230;2023-07-13T02:47:35;100740.25;;;17.85;91.75
37610;BME280;23457;51.966;8.230;2023-07-13T02:50:03;100724.47;;;17.85;91.52
37610;BME280;23457;51.966;8.230;2023-07-13T02:52:30;100741.22;;;17.76;92.26
37610;BME280;23457;51.966;8.230;2023-07-13T02:54:57;100728.00;;;17.84;91.78
37610;BME280;23457;51.966;8.230;2023-07-13T02:57:24;100737.66;;;17.82;91.71
37610;BME280;23457;51.966;8.230;2023-07-13T02:59:50;100743.00;;;17.74;91.97
37610;BME280;23457;51.966;8.230;2023-07-13T03:02:17;100741.28;;;17.72;92.52
37610;BME280;23457;51.966;8.230;2023-07-13T03:04:44;100750.81;;;17.79;91.55
37610;BME280;23457;51.966;8.230;2023-07-13T03:07:11;100754.31;;;17.81;92.54
37610;BME280;23457;51.966;8.230;2023-07-13T03:09:38;100752.59;;;17.77;92.44
37610;BME280;23457;51.966;8.230;2023-07-13T03:12:07;100755.22;;;17.78;91.59
37610;BME280;23457;51.966;8.230;2023-07-13T03:14:35;100745.53;;;17.82;91.95
37610;BME280;23457;51.966;8.230;2023-07-13T03:17:04;100742.94;;;17.80;91.38
37610;BME280;23457;51.966;8.230;2023-07-13T03:19:34;100750.81;;;17.79;91.81
37610;BME280;23457;51.966;8.230;2023-07-13T03:22:01;100751.72;;;17.76;92.43
37610;BME280;23457;51.966;8.230;2023-07-13T03:24:28;100754.38;;;17.75;92.02
37610;BME280;23457;51.966;8.230;2023-07-13T03:26:56;100752.72;;;17.68;92.21
37610;BME280;23457;51.966;8.230;2023-07-13T03:29:23;100748.38;;;17.62;92.24
37610;BME280;23457;51.966;8.230;2023-07-13T03:31:51;100754.59;;;17.55;92.33
37610;BME280;23457;51.966;8.230;2023-07-13T03:34:18;100759.81;;;17.58;91.70
37610;BME280;23457;51.966;8.230;2023-07-13T03:36:45;100761.53;;;17.64;91.66
37610;BME280;23457;51.966;8.230;2023-07-13T03:39:12;100759.72;;;17.69;91.63
37610;BME280;23457;51.966;8.230;2023-07-13T03:41:52;100767.66;;;17.61;91.39
37610;BME280;23457;51.966;8.230;2023-07-13T03:44:19;100765.09;;;17.58;92.25
37610;BME280;23457;51.966;8.230;2023-07-13T03:46:50;100769.63;;;17.44;92.41
37610;BME280;23457;51.966;8.230;2023-07-13T03:49:17;100775.91;;;17.29;93.28
37610;BME280;23457;51.966;8.230;2023-07-13T03:51:44;100778.53;;;17.31;93.29
37610;BME280;23457;51.966;8.230;2023-07-13T03:54:10;100782.88;;;17.32;91.99
37610;BME280;23457;51.966;8.230;2023-07-13T03:56:37;100778.53;;;17.29;92.36
37610;BME280;23457;51.966;8.230;2023-07-13T03:59:06;100781.16;;;17.29;92.18
37610;BME280;23457;51.966;8.230;2023-07-13T04:01:33;100777.81;;;17.12;92.34
37610;BME280;23457;51.966;8.230;2023-07-13T04:04:00;100780.47;;;17.10;92.15
37610;BME280;23457;51.966;8.230;2023-07-13T04:06:31;100789.38;;;16.96;92.63
37610;BME280;23457;51.966;8.230;2023-07-13T04:09:00;100795.44;;;17.01;92.29
37610;BME280;23457;51.966;8.230;2023-07-13T04:11:29;100796.41;;;16.92;91.98
37610;BME280;23457;51.966;8.230;2023-07-13T04:13:59;100795.56;;;16.86;92.56
37610;BME280;23457;51.966;8.230;2023-07-13T04:16:26;100799.09;;;16.83;92.90
37610;BME280;23457;51.966;8.230;2023-07-13T04:18:54;100792.13;;;16.80;92.34
37610;BME280;23457;51.966;8.230;2023-07-13T04:21:23;100792.16;;;16.77;92.13
37610;BME280;23457;51.966;8.230;2023-07-13T04:23:50;100793.88;;;16.81;91.84
37610;BME280;23457;51.966;8.230;2023-07-13T04:26:17;100792.81;;;16.99;91.06
37610;BME280;23457;51.966;8.230;2023-07-13T04:28:43;100788.50;;;16.97;90.14
37610;BME280;23457;51.966;8.230;2023-07-13T04:31:10;100789.31;;;17.00;90.16
37610;BME280;23457;51.966;8.230;2023-07-13T04:33:37;100795.31;;;17.14;89.11
37610;BME280;23457;51.966;8.230;2023-07-13T04:36:04;100797.06;;;17.12;88.81
37610;BME280;23457;51.966;8.230;2023-07-13T04:38:32;100797.91;;;17.21;88.71
37610;BME280;23457;51.966;8.230;2023-07-13T04:41:01;100798.78;;;17.19;88.21
37610;BME280;23457;51.966;8.230;2023-07-13T04:43:29;100795.19;;;17.28;87.43
37610;BME280;23457;51.966;8.230;2023-07-13T04:45:56;100799.63;;;17.22;87.64
37610;BME280;23457;51.966;8.230;2023-07-13T04:48:23;100796.97;;;17.23;87.83
37610;BME280;23457;51.966;8.230;2023-07-13T04:50:57;100802.44;;;17.02;88.50
37610;BME280;23457;51.966;8.230;2023-07-13T04:53:25;100801.53;;;17.07;87.52
37610;BME280;23457;51.966;8.230;2023-07-13T04:55:52;100802.19;;;17.29;86.40
37610;BME280;23457;51.966;8.230;2023-07-13T04:58:18;100810.03;;;17.34;86.92
37610;BME280;23457;51.966;8.230;2023-07-13T05:00:45;100808.47;;;17.11;87.72
37610;BME280;23457;51.966;8.230;2023-07-13T05:03:12;100811.13;;;17.08;88.93
37610;BME280;23457;51.966;8.230;2023-07-13T05:05:39;100814.69;;;17.00;89.95
37610;BME280;23457;51.966;8.230;2023-07-13T05:08:05;100810.97;;;17.25;88.52
37610;BME280;23457;51.966;8.230;2023-07-13T05:10:34;100806.56;;;17.29;87.69
37610;BME280;23457;51.966;8.230;2023-07-13T05:13:01;100802.91;;;17.43;87.00
37610;BME280;23457;51.966;8.230;2023-07-13T05:15:27;100812.59;;;17.37;87.71
37610;BME280;23457;51.966;8.230;2023-07-13T05:17:54;100812.56;;;17.38;87.42
37610;BME280;23457;51.966;8.230;2023-07-13T05:20:21;100810.78;;;17.43;87.10
37610;BME280;23457;51.966;8.230;2023-07-13T05:22:48;100819.34;;;17.61;86.23
37610;BME280;23457;51.966;8.230;2023-07-13T05:25:14;100821.78;;;17.82;85.75
37610;BME280;23457;51.966;8.230;2023-07-13T05:27:41;100815.81;;;17.68;85.56
37610;BME280;23457;51.966;8.230;2023-07-13T05:30:08;100817.75;;;17.47;86.07
37610;BME280;23457;51.966;8.230;2023-07-13T05:32:37;100821.19;;;17.52;85.69
37610;BME280;23457;51.966;8.230;2023-07-13T05:35:05;100822.91;;;17.57;86.14
37610;BME280;23457;51.966;8.230;2023-07-13T05:37:32;100829.81;;;17.70;86.51
37610;BME280;23457;51.966;8.230;2023-07-13T05:39:58;100830.03;;;17.45;86.48
37610;BME280;23457;51.966;8.230;2023-07-13T05:42:25;100830.63;;;17.73;85.81
37610;BME280;23457;51.966;8.230;2023-07-13T05:44:52;100833.31;;;17.70;86.23
37610;BME280;23457;51.966;8.230;2023-07-13T05:47:18;100835.94;;;17.69;87.28
37610;BME280;23457;51.966;8.230;2023-07-13T05:49:45;100832.16;;;17.93;85.78
37610;BME280;23457;51.966;8.230;2023-07-13T05:52:12;100844.75;;;17.63;86.44
37610;BME280;23457;51.966;8.230;2023-07-13T05:54:39;100842.09;;;17.68;87.15
37610;BME280;23457;51.966;8.230;2023-07-13T05:57:05;100844.94;;;17.43;88.00
37610;BME280;23457;51.966;8.230;2023-07-13T05:59:32;100847.44;;;17.55;87.78
37610;BME280;23457;51.966;8.230;2023-07-13T06:01:58;100845.31;;;17.93;87.25
37610;BME280;23457;51.966;8.230;2023-07-13T06:04:25;100847.81;;;18.00;86.48
37610;BME280;23457;51.966;8.230;2023-07-13T06:06:52;100854.38;;;17.66;87.55
37610;BME280;23457;51.966;8.230;2023-07-13T06:09:19;100859.72;;;17.52;88.46
37610;BME280;23457;51.966;8.230;2023-07-13T06:11:46;100854.38;;;17.66;88.27
37610;BME280;23457;51.966;8.230;2023-07-13T06:14:12;100856.81;;;17.84;86.88
37610;BME280;23457;51.966;8.230;2023-07-13T06:16:39;100859.50;;;17.75;87.60
37610;BME280;23457;51.966;8.230;2023-07-13T06:19:07;100855.16;;;17.74;88.27
37610;BME280;23457;51.966;8.230;2023-07-13T06:21:34;100857.69;;;17.83;88.14
37610;BME280;23457;51.966;8.230;2023-07-13T06:24:01;100862.09;;;17.79;88.52
37610;BME280;23457;51.966;8.230;2023-07-13T06:26:28;100860.06;;;18.04;87.83
37610;BME280;23457;51.966;8.230;2023-07-13T06:28:54;100859.06;;;18.11;86.84
37610;BME280;23457;51.966;8.230;2023-07-13T06:31:21;100863.19;;;18.34;86.69
37610;BME280;23457;51.966;8.230;2023-07-13T06:33:48;100862.53;;;18.16;87.17
37610;BME280;23457;51.966;8.230;2023-07-13T06:36:15;100867.97;;;18.03;88.30
37610;BME280;23457;51.966;8.230;2023-07-13T06:38:41;100870.28;;;18.27;87.96
37610;BME280;23457;51.966;8.230;2023-07-13T06:41:08;100869.31;;;18.36;87.34
37610;BME280;23457;51.966;8.230;2023-07-13T06:43:36;100874.56;;;18.36;87.46
37610;BME280;23457;51.966;8.230;2023-07-13T06:46:03;100878.13;;;18.30;87.63
37610;BME280;23457;51.966;8.230;2023-07-13T06:48:30;100879.88;;;18.33;88.64
37610;BME280;23457;51.966;8.230;2023-07-13T06:50:57;100868.47;;;18.34;88.96
37610;BME280;23457;51.966;8.230;2023-07-13T06:53:24;100877.00;;;18.49;87.48
37610;BME280;23457;51.966;8.230;2023-07-13T06:55:50;100875.44;;;18.36;88.14
37610;BME280;23457;51.966;8.230;2023-07-13T06:58:18;100877.66;;;18.68;87.27
37610;BME280;23457;51.966;8.230;2023-07-13T07:00:46;100877.78;;;18.56;87.22
37610;BME280;23457;51.966;8.230;2023-07-13T07:03:13;100882.19;;;18.58;87.07
37610;BME280;23457;51.966;8.230;2023-07-13T07:05:40;100866.25;;;18.68;88.33
37610;BME280;23457;51.966;8.230;2023-07-13T07:08:08;100876.44;;;18.89;86.52
37610;BME280;23457;51.966;8.230;2023-07-13T07:10:35;100876.50;;;18.86;86.78
37610;BME280;23457;51.966;8.230;2023-07-13T07:13:03;100882.66;;;18.86;87.88
37610;BME280;23457;51.966;8.230;2023-07-13T07:15:30;100886.78;;;19.01;87.08
37610;BME280;23457;51.966;8.230;2023-07-13T07:17:57;100883.16;;;19.10;87.02
37610;BME280;23457;51.966;8.230;2023-07-13T07:20:24;100886.44;;;19.24;86.81
37610;BME280;23457;51.966;8.230;2023-07-13T07:22:50;100888.31;;;19.14;86.40
37610;BME280;23457;51.966;8.230;2023-07-13T07:25:17;100892.59;;;19.23;85.82
37610;BME280;23457;51.966;8.230;2023-07-13T07:27:44;100890.59;;;19.37;85.61
37610;BME280;23457;51.966;8.230;2023-07-13T07:30:14;100880.59;;;19.57;85.07
37610;BME280;23457;51.966;8.230;2023-07-13T07:32:45;100874.19;;;19.71;84.98
37610;BME280;23457;51.966;8.230;2023-07-13T07:35:14;100886.34;;;19.78;83.58
37610;BME280;23457;51.966;8.230;2023-07-13T07:37:41;100886.81;;;19.53;83.89
37610;BME280;23457;51.966;8.230;2023-07-13T07:40:10;100880.13;;;19.82;84.41
37610;BME280;23457;51.966;8.230;2023-07-13T07:42:40;100889.09;;;19.73;84.57
37610;BME280;23457;51.966;8.230;2023-07-13T07:45:07;100873.16;;;19.78;82.11
37610;BME280;23457;51.966;8.230;2023-07-13T07:47:34;100878.00;;;20.00;82.24
37610;BME280;23457;51.966;8.230;2023-07-13T07:50:01;100884.56;;;19.80;81.69
37610;BME280;23457;51.966;8.230;2023-07-13T07:52:27;100887.06;;;19.87;81.47
37610;BME280;23457;51.966;8.230;2023-07-13T07:54:54;100888.25;;;19.71;81.98
37610;BME280;23457;51.966;8.230;2023-07-13T07:57:23;100885.84;;;19.59;83.24
37610;BME280;23457;51.966;8.230;2023-07-13T07:59:53;100876.78;;;19.74;83.08
37610;BME280;23457;51.966;8.230;2023-07-13T08:02:23;100877.31;;;19.91;82.62
37610;BME280;23457;51.966;8.230;2023-07-13T08:04:53;100886.91;;;19.95;81.24
37610;BME280;23457;51.966;8.230;2023-07-13T08:07:23;100882.28;;;20.06;81.41
37610;BME280;23457;51.966;8.230;2023-07-13T08:09:54;100873.47;;;20.50;80.65
37610;BME280;23457;51.966;8.230;2023-07-13T08:12:21;100887.25;;;20.21;79.47
37610;BME280;23457;51.966;8.230;2023-07-13T08:14:50;100894.00;;;20.34;80.39
37610;BME280;23457;51.966;8.230;2023-07-13T08:17:20;100886.88;;;20.39;80.25
37610;BME280;23457;51.966;8.230;2023-07-13T08:19:47;100883.34;;;20.41;78.10
37610;BME280;23457;51.966;8.230;2023-07-13T08:22:14;100887.03;;;20.30;80.28
37610;BME280;23457;51.966;8.230;2023-07-13T08:24:40;100886.47;;;20.58;78.41
37610;BME280;23457;51.966;8.230;2023-07-13T08:27:10;100879.41;;;20.60;78.03
37610;BME280;23457;51.966;8.230;2023-07-13T08:29:38;100891.06;;;20.88;77.97
37610;BME280;23457;51.966;8.230;2023-07-13T08:32:06;100885.19;;;21.13;77.84
37610;BME280;23457;51.966;8.230;2023-07-13T08:34:36;100888.47;;;21.24;75.45
37610;BME280;23457;51.966;8.230;2023-07-13T08:37:03;100884.94;;;20.86;73.81
37610;BME280;23457;51.966;8.230;2023-07-13T08:39:30;100889.75;;;21.06;74.94
37610;BME280;23457;51.966;8.230;2023-07-13T08:42:04;100892.53;;;21.01;75.03
37610;BME280;23457;51.966;8.230;2023-07-13T08:47:23;100900.47;;;20.63;73.80
37610;BME280;23457;51.966;8.230;2023-07-13T08:49:51;100896.16;;;20.59;75.89
37610;BME280;23457;51.966;8.230;2023-07-13T08:52:33;100890.22;;;20.86;75.80
37610;BME280;23457;51.966;8.230;2023-07-13T08:55:12;100887.69;;;21.17;75.72
37610;BME280;23457;51.966;8.230;2023-07-13T08:57:41;100892.13;;;21.17;74.90
37610;BME280;23457;51.966;8.230;2023-07-13T09:00:10;100891.34;;;21.13;74.42
37610;BME280;23457;51.966;8.230;2023-07-13T09:02:56;100891.44;;;21.08;76.19
37610;BME280;23457;51.966;8.230;2023-07-13T09:05:34;100893.84;;;21.19;74.90
37610;BME280;23457;51.966;8.230;2023-07-13T09:14:06;100884.09;;;21.89;71.40
37610;BME280;23457;51.966;8.230;2023-07-13T09:16:39;100891.88;;;21.94;68.52
37610;BME280;23457;51.966;8.230;2023-07-13T09:19:13;100882.06;;;21.99;68.67
37610;BME280;23457;51.966;8.230;2023-07-13T09:21:44;100881.75;;;22.09;66.83
37610;BME280;23457;51.966;8.230;2023-07-13T09:24:50;100878.25;;;21.76;67.84
37610;BME280;23457;51.966;8.230;2023-07-13T09:27:23;100885.19;;;21.80;68.15
37610;BME280;23457;51.966;8.230;2023-07-13T09:29:56;100882.59;;;22.11;67.70
37610;BME280;23457;51.966;8.230;2023-07-13T09:32:24;100877.81;;;22.24;67.45
37610;BME280;23457;51.966;8.230;2023-07-13T09:34:54;100884.03;;;22.52;66.88
37610;BME280;23457;51.966;8.230;2023-07-13T09:37:24;100886.56;;;22.26;66.22
37610;BME280;23457;51.966;8.230;2023-07-13T09:39:55;100896.69;;;22.12;66.86
37610;BME280;23457;51.966;8.230;2023-07-13T09:42:25;100891.88;;;22.26;66.55
37610;BME280;23457;51.966;8.230;2023-07-13T09:44:57;100896.66;;;22.43;62.76
37610;BME280;23457;51.966;8.230;2023-07-13T09:47:32;100887.34;;;22.59;62.84
37610;BME280;23457;51.966;8.230;2023-07-13T09:50:14;100897.63;;;22.68;62.40
37610;BME280;23457;51.966;8.230;2023-07-13T09:52:48;100894.19;;;22.66;61.97
37610;BME280;23457;51.966;8.230;2023-07-13T09:55:31;100901.03;;;22.73;59.54
37610;BME280;23457;51.966;8.230;2023-07-13T09:58:10;100891.25;;;22.77;63.11
37610;BME280;23457;51.966;8.230;2023-07-13T10:00:38;100894.53;;;23.11;63.08
37610;BME280;23457;51.966;8.230;2023-07-13T10:03:20;100901.75;;;23.06;60.45
37610;BME280;23457;51.966;8.230;2023-07-13T10:05:50;100902.81;;;23.29;59.34
37610;BME280;23457;51.966;8.230;2023-07-13T10:08:20;100899.38;;;22.69;59.06
37610;BME280;23457;51.966;8.230;2023-07-13T10:10:52;100898.50;;;22.69;61.50
37610;BME280;23457;51.966;8.230;2023-07-13T10:13:34;100898.44;;;23.00;61.25
37610;BME280;23457;51.966;8.230;2023-07-13T10:16:06;100899.94;;;23.35;60.61
37610;BME280;23457;51.966;8.230;2023-07-13T10:18:46;100894.31;;;23.70;59.79
37610;BME280;23457;51.966;8.230;2023-07-13T10:21:19;100895.34;;;23.91;57.98
37610;BME280;23457;51.966;8.230;2023-07-13T10:24:06;100895.06;;;24.22;57.37
37610;BME280;23457;51.966;8.230;2023-07-13T10:26:40;100891.84;;;23.66;56.79
37610;BME280;23457;51.966;8.230;2023-07-13T10:29:13;100907.00;;;22.80;61.42
37610;BME280;23457;51.966;8.230;2023-07-13T10:31:41;100907.38;;;22.68;60.51
37610;BME280;23457;51.966;8.230;2023-07-13T10:34:10;100908.94;;;22.45;62.82
37610;BME280;23457;51.966;8.230;2023-07-13T10:36:43;100909.53;;;22.55;63.63
37610;BME280;23457;51.966;8.230;2023-07-13T10:39:22;100912.59;;;22.41;62.60
37610;BME280;23457;51.966;8.230;2023-07-13T10:41:53;100907.00;;;22.52;62.44
37610;BME280;23457;51.966;8.230;2023-07-13T10:44:25;100904.88;;;23.19;62.39
37610;BME280;23457;51.966;8.230;2023-07-13T10:46:58;100915.94;;;23.32;60.87
37610;BME280;23457;51.966;8.230;2023-07-13T10:49:31;100907.47;;;23.73;60.80
37610;BME280;23457;51.966;8.230;2023-07-13T10:51:58;100906.41;;;23.79;57.98
37610;BME280;23457;51.966;8.230;2023-07-13T10:57:15;100912.63;;;24.03;56.24
37610;BME280;23457;51.966;8.230;2023-07-13T11:00:14;100908.63;;;24.14;58.30
37610;BME280;23457;51.966;8.230;2023-07-13T11:02:42;100907.28;;;23.79;55.75
37610;BME280;23457;51.966;8.230;2023-07-13T11:05:22;100917.16;;;23.21;56.48
37610;BME280;23457;51.966;8.230;2023-07-13T11:07:56;100912.53;;;23.02;57.60
37610;BME280;23457;51.966;8.230;2023-07-13T11:10:55;100910.84;;;23.26;58.84
37610;BME280;23457;51.966;8.230;2023-07-13T11:13:56;100912.28;;;23.87;58.66
37610;BME280;23457;51.966;8.230;2023-07-13T11:21:29;100903.91;;;24.69;52.91
37610;BME280;23457;51.966;8.230;2023-07-13T11:24:14;100911.63;;;24.30;52.77
37610;BME280;23457;51.966;8.230;2023-07-13T11:26:50;100911.09;;;23.96;55.07
37610;BME280;23457;51.966;8.230;2023-07-13T11:31:55;100908.66;;;23.89;56.13
37610;BME280;23457;51.966;8.230;2023-07-13T11:34:41;100907.00;;;24.35;56.03
37610;BME280;23457;51.966;8.230;2023-07-13T11:37:12;100910.81;;;24.28;53.16
37610;BME280;23457;51.966;8.230;2023-07-13T11:39:42;100901.28;;;24.21;52.16
37610;BME280;23457;51.966;8.230;2023-07-13T11:42:16;100905.31;;;24.33;52.59
37610;BME280;23457;51.966;8.230;2023-07-13T11:44:47;100902.34;;;24.63;52.37
37610;BME280;23457;51.966;8.230;2023-07-13T11:47:33;100914.88;;;25.27;51.81
37610;BME280;23457;51.966;8.230;2023-07-13T11:50:00;100903.41;;;25.05;49.74
37610;BME280;23457;51.966;8.230;2023-07-13T11:52:36;100915.38;;;24.00;52.33
37610;BME280;23457;51.966;8.230;2023-07-13T11:55:18;100902.38;;;24.40;53.26
37610;BME280;23457;51.966;8.230;2023-07-13T11:57:49;100909.34;;;23.70;54.06
37610;BME280;23457;51.966;8.230;2023-07-13T12:00:21;100908.13;;;23.55;52.68
37610;BME280;23457;51.966;8.230;2023-07-13T12:02:50;100909.88;;;23.81;54.37
37610;BME280;23457;51.966;8.230;2023-07-13T12:05:20;100905.19;;;23.87;52.77
37610;BME280;23457;51.966;8.230;2023-07-13T12:07:48;100904.53;;;23.56;53.05
37610;BME280;23457;51.966;8.230;2023-07-13T12:10:20;100908.50;;;23.16;54.06
37610;BME280;23457;51.966;8.230;2023-07-13T12:15:21;100917.41;;;24.41;53.42
37610;BME280;23457;51.966;8.230;2023-07-13T12:17:49;100900.34;;;24.47;52.27
37610;BME280;23457;51.966;8.230;2023-07-13T12:20:23;100912.22;;;24.13;51.88
37610;BME280;23457;51.966;8.230;2023-07-13T12:22:51;100906.81;;;23.91;51.09
37610;BME280;23457;51.966;8.230;2023-07-13T12:25:18;100895.13;;;23.72;50.42
37610;BME280;23457;51.966;8.230;2023-07-13T12:27:47;100907.34;;;23.51;51.32
37610;BME280;23457;51.966;8.230;2023-07-13T12:30:30;100904.44;;;23.84;52.43
37610;BME280;23457;51.966;8.230;2023-07-13T12:33:05;100896.81;;;24.46;50.38
37610;BME280;23457;51.966;8.230;2023-07-13T12:35:41;100900.41;;;24.90;49.08
37610;BME280;23457;51.966;8.230;2023-07-13T12:38:11;100889.16;;;25.27;48.25
37610;BME280;23457;51.966;8.230;2023-07-13T12:40:39;100903.31;;;25.70;48.67
37610;BME280;23457;51.966;8.230;2023-07-13T12:43:13;100896.59;;;25.40;45.86
37610;BME280;23457;51.966;8.230;2023-07-13T12:45:57;100897.53;;;25.59;46.82
37610;BME280;23457;51.966;8.230;2023-07-13T12:48:25;100896.72;;;25.79;45.59
37610;BME280;23457;51.966;8.230;2023-07-13T12:51:12;100902.38;;;25.91;47.53
37610;BME280;23457;51.966;8.230;2023-07-13T12:53:42;100888.31;;;26.27;45.86
37610;BME280;23457;51.966;8.230;2023-07-13T12:56:18;100895.19;;;26.51;45.28
37610;BME280;23457;51.966;8.230;2023-07-13T12:58:46;100898.00;;;26.48;45.81
37610;BME280;23457;51.966;8.230;2023-07-13T13:01:17;100887.03;;;26.35;45.63
37610;BME280;23457;51.966;8.230;2023-07-13T13:03:49;100909.69;;;25.66;45.65
37610;BME280;23457;51.966;8.230;2023-07-13T13:06:23;100908.63;;;25.28;45.98
37610;BME280;23457;51.966;8.230;2023-07-13T13:08:52;100908.16;;;24.73;47.95
37610;BME280;23457;51.966;8.230;2023-07-13T13:11:21;100908.06;;;24.76;48.36
37610;BME280;23457;51.966;8.230;2023-07-13T13:13:49;100914.63;;;24.89;47.91
37610;BME280;23457;51.966;8.230;2023-07-13T13:18:47;100914.91;;;24.37;49.21
37610;BME280;23457;51.966;8.230;2023-07-13T13:21:15;100913.94;;;24.39;50.03
37610;BME280;23457;51.966;8.230;2023-07-13T13:23:42;100916.72;;;24.58;49.58
37610;BME280;23457;51.966;8.230;2023-07-13T13:26:12;100971.94;;;23.49;51.49
37610;BME280;23457;51.966;8.230;2023-07-13T13:28:39;100968.63;;;21.94;62.26